createdAt,value
2023-09-28T00:04:34.020Z,100467.00
2023-09-28T00:09:36.141Z,100471.53
2023-09-28T00:14:36.833Z,100457.78
2023-09-28T00:19:37.658Z,100470.19
2023-09-28T00:24:39.779Z,100465.66
2023-09-28T00:29:40.520Z,100459.81
2023-09-28T00:34:41.347Z,100461.78
2023-09-28T00:39:43.485Z,100461.31
2023-09-28T00:44:45.669Z,100464.22
2023-09-28T00:49:46.822Z,100461.59
2023-09-28T00:54:50.807Z,100460.22
2023-09-28T00:59:51.544Z,100455.94
2023-09-28T01:04:52.769Z,100458.69
2023-09-28T01:09:56.148Z,100460.63
2023-09-28T01:15:00.591Z,100461.53
2023-09-28T01:20:01.340Z,100462.53
2023-09-28T01:25:05.183Z,100467.81
2023-09-28T01:30:07.041Z,100467.19
2023-09-28T01:35:08.966Z,100474.41
2023-09-28T01:40:14.345Z,100471.13
2023-09-28T01:45:15.926Z,100464.13
2023-09-28T01:50:16.693Z,100459.09
2023-09-28T01:55:18.997Z,100466.94
2023-09-28T02:00:21.613Z,100467.75
2023-09-28T02:05:23.709Z,100460.81
2023-09-28T02:10:26.034Z,100455.78
2023-09-28T02:15:26.815Z,100455.91
2023-09-28T02:20:27.523Z,100451.63
2023-09-28T02:25:30.637Z,100457.91
2023-09-28T02:30:31.376Z,100454.53
2023-09-28T02:35:32.332Z,100454.69
2023-09-28T02:40:34.452Z,100466.66
2023-09-28T02:45:36.883Z,100456.38
2023-09-28T02:50:40.057Z,100463.38
2023-09-28T02:55:42.205Z,100459.28
2023-09-28T03:00:43.533Z,100465.31
2023-09-28T03:05:44.391Z,100468.00
2023-09-28T03:10:46.672Z,100477.59
2023-09-28T03:15:47.480Z,100490.38
2023-09-28T03:20:49.228Z,100500.53
2023-09-28T03:25:52.074Z,100504.09
2023-09-28T03:30:52.823Z,100504.38
2023-09-28T03:35:53.601Z,100508.75
2023-09-28T03:40:55.744Z,100511.31
2023-09-28T03:45:56.563Z,100513.22
2023-09-28T03:50:57.418Z,100507.25
2023-09-28T03:55:59.526Z,100515.16
2023-09-28T04:01:00.303Z,100512.75
2023-09-28T04:06:01.030Z,100515.63
2023-09-28T04:11:03.261Z,100520.00
2023-09-28T04:16:04.052Z,100514.78
2023-09-28T04:21:04.820Z,100521.91
2023-09-28T04:26:08.733Z,100511.69
2023-09-28T04:31:09.625Z,100512.69
2023-09-28T04:36:12.177Z,100517.03
2023-09-28T04:41:17.393Z,100520.53
2023-09-28T04:46:18.210Z,100515.50
2023-09-28T04:51:19.234Z,100518.13
2023-09-28T04:56:21.564Z,100519.13
2023-09-28T05:01:22.617Z,100526.88
2023-09-28T05:06:24.355Z,100518.06
2023-09-28T05:11:26.464Z,100522.34
2023-09-28T05:16:27.273Z,100529.34
2023-09-28T05:21:28.109Z,100528.97
2023-09-28T05:26:30.202Z,100521.75
2023-09-28T05:31:33.101Z,100521.72
2023-09-28T05:36:35.214Z,100523.31
2023-09-28T05:41:37.377Z,100536.28
2023-09-28T05:46:38.248Z,100534.34
2023-09-28T05:51:38.977Z,100543.69
2023-09-28T05:56:41.211Z,100548.88
2023-09-28T06:01:42.033Z,100565.00
2023-09-28T06:06:42.799Z,100553.22
2023-09-28T06:11:47.036Z,100567.13
2023-09-28T06:16:47.894Z,100572.72
2023-09-28T06:21:48.674Z,100565.22
2023-09-28T06:26:51.105Z,100572.56
2023-09-28T06:31:52.047Z,100581.63
2023-09-28T06:36:56.363Z,100578.50
2023-09-28T06:42:12.492Z,100585.91
2023-09-28T06:47:21.483Z,100594.84
2023-09-28T06:52:22.694Z,100578.31
2023-09-28T06:57:24.934Z,100580.81
2023-09-28T07:02:26.015Z,100578.53
2023-09-28T07:07:30.256Z,100577.28
2023-09-28T07:12:32.394Z,100582.53
2023-09-28T07:17:33.217Z,100582.75
2023-09-28T07:22:34.237Z,100580.56
2023-09-28T07:27:36.668Z,100573.31
2023-09-28T07:32:37.697Z,100570.69
2023-09-28T07:37:39.918Z,100566.31
2023-09-28T07:42:44.482Z,100564.22
2023-09-28T07:47:45.338Z,100579.00
2023-09-28T07:52:46.099Z,100575.22
2023-09-28T07:57:57.625Z,100573.91
2023-09-28T08:03:01.439Z,100577.06
2023-09-28T08:08:11.681Z,100574.34
2023-09-28T08:13:18.857Z,100584.78
2023-09-28T08:18:21.386Z,100584.97
2023-09-28T08:23:24.329Z,100590.50
2023-09-28T08:28:26.686Z,100583.72
2023-09-28T08:33:27.664Z,100586.28
2023-09-28T08:38:28.583Z,100575.94
2023-09-28T08:43:35.131Z,100576.72
2023-09-28T08:48:41.924Z,100577.75
2023-09-28T08:53:44.519Z,100573.34
2023-09-28T08:58:49.257Z,100565.09
2023-09-28T09:03:51.370Z,100562.53
2023-09-28T09:08:53.181Z,100564.97
2023-09-28T09:13:57.799Z,100561.06
2023-09-28T09:19:00.973Z,100559.53
2023-09-28T09:24:06.247Z,100546.91
2023-09-28T09:29:09.107Z,100547.00
2023-09-28T09:34:12.668Z,100550.31
2023-09-28T09:39:23.848Z,100553.06
2023-09-28T09:44:27.552Z,100547.38
2023-09-28T09:49:29.919Z,100542.22
2023-09-28T09:54:33.389Z,100529.97
2023-09-28T09:59:36.435Z,100544.13
2023-09-28T10:04:38.072Z,100531.66
2023-09-28T10:09:40.083Z,100540.72
2023-09-28T10:14:42.793Z,100538.50
2023-09-28T10:19:43.869Z,100535.06
2023-09-28T10:24:45.635Z,100533.75
2023-09-28T10:29:47.727Z,100532.00
2023-09-28T10:35:09.372Z,100533.84
2023-09-28T10:40:12.788Z,100531.38
2023-09-28T10:45:13.567Z,100511.41
2023-09-28T10:50:17.041Z,100520.50
2023-09-28T10:55:19.368Z,100510.41
2023-09-28T11:00:21.266Z,100520.97
2023-09-28T11:05:23.105Z,100508.47
2023-09-28T11:10:26.431Z,100522.25
2023-09-28T11:15:30.620Z,100514.94
2023-09-28T11:20:32.832Z,100515.66
2023-09-28T11:25:45.498Z,100515.22
2023-09-28T11:30:47.385Z,100504.25
2023-09-28T11:35:48.395Z,100503.28
2023-09-28T11:40:54.061Z,100499.88
2023-09-28T11:45:55.214Z,100487.75
2023-09-28T11:50:56.041Z,100488.00
2023-09-28T11:55:58.283Z,100491.63
2023-09-28T12:00:59.630Z,100481.34
2023-09-28T12:06:00.477Z,100483.22
2023-09-28T12:11:02.754Z,100489.25
2023-09-28T12:16:03.810Z,100476.03
2023-09-28T12:21:04.969Z,100490.03
2023-09-28T12:26:07.229Z,100483.28
2023-09-28T12:31:09.587Z,100484.50
2023-09-28T12:36:13.656Z,100482.28
2023-09-28T12:41:15.894Z,100480.72
2023-09-28T12:46:16.811Z,100480.72
2023-09-28T12:51:17.760Z,100478.31
2023-09-28T12:56:19.935Z,100481.94
2023-09-28T13:01:23.700Z,100475.50
2023-09-28T13:06:24.949Z,100463.22
2023-09-28T13:11:28.074Z,100455.69
2023-09-28T13:16:30.166Z,100450.94
2023-09-28T13:21:31.069Z,100447.66
2023-09-28T13:26:34.306Z,100447.63
2023-09-28T13:31:35.130Z,100448.47
2023-09-28T13:36:35.964Z,100435.59
2023-09-28T13:41:38.027Z,100423.19
2023-09-28T13:46:39.265Z,100435.31
2023-09-28T13:51:40.152Z,100433.38
2023-09-28T13:56:45.836Z,100438.94
2023-09-28T14:01:48.274Z,100442.09
2023-09-28T14:06:49.198Z,100440.03
2023-09-28T14:11:51.310Z,100442.94
2023-09-28T14:16:52.871Z,100432.75
2023-09-28T14:21:53.657Z,100430.34
2023-09-28T14:26:56.245Z,100426.97
2023-09-28T14:31:57.270Z,100428.28
2023-09-28T14:36:58.344Z,100424.06
2023-09-28T14:42:00.548Z,100420.44
2023-09-28T14:47:01.324Z,100414.78
2023-09-28T14:52:02.398Z,100410.19
2023-09-28T14:57:05.131Z,100410.06
2023-09-28T15:02:05.916Z,100409.63
2023-09-28T15:07:13.958Z,100422.00
2023-09-28T15:12:16.343Z,100422.84
2023-09-28T15:17:17.183Z,100421.16
2023-09-28T15:22:18.180Z,100428.22
2023-09-28T15:27:20.332Z,100427.97
2023-09-28T15:32:21.221Z,100418.16
2023-09-28T15:37:22.696Z,100414.72
2023-09-28T15:42:25.817Z,100419.19
2023-09-28T15:47:26.926Z,100416.53
2023-09-28T15:52:27.657Z,100423.03
2023-09-28T15:57:31.293Z,100436.41
2023-09-28T16:02:32.166Z,100442.97
2023-09-28T16:07:33.094Z,100443.78
2023-09-28T16:12:35.646Z,100455.09
2023-09-28T16:17:37.205Z,100453.66
2023-09-28T16:22:38.155Z,100460.81
2023-09-28T16:27:40.353Z,100463.13
2023-09-28T16:32:41.269Z,100456.94
2023-09-28T16:37:42.144Z,100454.53
2023-09-28T16:42:46.383Z,100454.91
2023-09-28T16:47:47.594Z,100461.34
2023-09-28T16:52:48.662Z,100468.56
2023-09-28T16:57:50.955Z,100473.84
2023-09-28T17:02:52.122Z,100470.81
2023-09-28T17:07:53.024Z,100484.41
2023-09-28T17:12:56.673Z,100478.44
2023-09-28T17:18:06.442Z,100484.28
2023-09-28T17:23:16.074Z,100473.28
2023-09-28T17:28:18.264Z,100472.13
2023-09-28T17:33:19.126Z,100475.72
2023-09-28T17:38:20.004Z,100473.13
2023-09-28T17:43:22.197Z,100485.41
2023-09-28T17:48:25.182Z,100487.56
2023-09-28T17:53:26.465Z,100488.94
2023-09-28T17:58:28.800Z,100495.28
2023-09-28T18:03:29.739Z,100503.28
2023-09-28T18:08:30.567Z,100504.13
2023-09-28T18:13:33.977Z,100508.31
2023-09-28T18:18:34.895Z,100516.69
2023-09-28T18:23:35.798Z,100524.16
2023-09-28T18:28:38.981Z,100530.00
2023-09-28T18:33:40.657Z,100535.66
2023-09-28T18:38:41.515Z,100544.75
2023-09-28T18:43:43.698Z,100545.44
2023-09-28T18:48:44.502Z,100551.03
2023-09-28T18:53:45.635Z,100558.06
2023-09-28T18:58:47.774Z,100555.97
2023-09-28T19:03:48.762Z,100555.13
2023-09-28T19:08:50.282Z,100554.75
2023-09-28T19:13:52.512Z,100551.09
2023-09-28T19:18:53.665Z,100555.53
2023-09-28T19:23:54.882Z,100549.94
2023-09-28T19:28:57.260Z,100556.88
2023-09-28T19:33:58.541Z,100561.88
2023-09-28T19:38:59.343Z,100564.19
2023-09-28T19:44:01.471Z,100559.59
2023-09-28T19:49:02.559Z,100563.38
2023-09-28T19:54:03.378Z,100555.31
2023-09-28T19:59:05.469Z,100558.44
2023-09-28T20:04:06.573Z,100552.09
2023-09-28T20:09:07.966Z,100558.88
2023-09-28T20:14:10.052Z,100554.22
2023-09-28T20:19:10.837Z,100558.91
2023-09-28T20:24:11.566Z,100560.53
2023-09-28T20:29:13.759Z,100556.88
2023-09-28T20:34:14.563Z,100566.97
2023-09-28T20:39:16.062Z,100571.78
2023-09-28T20:44:18.412Z,100573.13
2023-09-28T20:49:19.283Z,100571.72
2023-09-28T20:54:20.008Z,100577.72
2023-09-28T20:59:22.339Z,100573.41
2023-09-28T21:04:23.369Z,100562.94
2023-09-28T21:09:24.294Z,100570.75
2023-09-28T21:14:26.373Z,100581.41
2023-09-28T21:19:27.069Z,100582.47
2023-09-28T21:24:27.817Z,100582.72
2023-09-28T21:29:30.215Z,100583.63
2023-09-28T21:34:30.952Z,100579.44
2023-09-28T21:39:31.811Z,100582.44
2023-09-28T21:44:34.031Z,100576.72
2023-09-28T21:49:34.841Z,100573.44
2023-09-28T21:54:38.376Z,100574.50
2023-09-28T21:59:41.038Z,100581.19
2023-09-28T22:04:41.754Z,100577.06
2023-09-28T22:09:42.512Z,100584.31
2023-09-28T22:14:44.841Z,100587.06
2023-09-28T22:19:45.605Z,100580.38
2023-09-28T22:24:46.344Z,100578.31
2023-09-28T22:29:48.790Z,100589.88
2023-09-28T22:34:49.569Z,100594.53
2023-09-28T22:39:50.311Z,100594.28
2023-09-28T22:44:52.445Z,100601.47
2023-09-28T22:49:53.259Z,100603.44
2023-09-28T22:54:54.101Z,100609.09
2023-09-28T22:59:56.229Z,100610.19
2023-09-28T23:04:57.043Z,100607.72
2023-09-28T23:09:57.939Z,100609.72
2023-09-28T23:15:00.026Z,100609.66
2023-09-28T23:20:00.827Z,100612.53
2023-09-28T23:25:01.604Z,100611.16
2023-09-28T23:30:03.926Z,100608.59
2023-09-28T23:35:10.446Z,100605.19
2023-09-28T23:40:16.358Z,100614.16
2023-09-28T23:45:20.353Z,100611.59
2023-09-28T23:50:22.523Z,100603.97
2023-09-28T23:55:23.537Z,100603.34
